createdAt,value
2023-04-16T00:01:14.541Z,34.2
2023-04-16T00:03:18.311Z,28.2
2023-04-16T00:07:28.468Z,35.2
2023-04-16T00:09:32.084Z,30.4
2023-04-16T00:28:28.248Z,38.4
2023-04-16T00:30:31.872Z,44.1
2023-04-16T00:34:42.139Z,38.2
2023-04-16T00:36:45.740Z,47.3
2023-04-16T00:40:52.957Z,35.8
2023-04-16T00:42:56.600Z,44.6
2023-04-16T00:45:00.210Z,42.1
2023-04-16T00:47:06.857Z,45
2023-04-16T00:53:17.682Z,52.3
2023-04-16T00:55:21.301Z,43.8
2023-04-16T00:57:24.936Z,44.6
2023-04-16T00:59:28.528Z,45.9
2023-04-16T01:01:35.234Z,52.2
2023-04-16T01:05:43.927Z,59.4
2023-04-16T01:06:47.264Z,40
2023-04-16T01:08:50.918Z,45.6
2023-04-16T01:10:54.506Z,40.9
2023-04-16T01:12:58.098Z,57.9
2023-04-16T01:15:04.781Z,41.9
2023-04-16T01:17:08.379Z,50.4
2023-04-16T01:19:12.159Z,55.6
2023-04-16T01:21:15.602Z,52
2023-04-16T01:27:26.398Z,51.4
2023-04-16T01:29:33.051Z,49
2023-04-16T01:31:36.764Z,59.6
2023-04-16T01:33:40.320Z,49.4
2023-04-16T01:35:43.914Z,52.2
2023-04-16T01:39:51.122Z,51.8
2023-04-16T01:41:54.710Z,57.5
2023-04-16T01:50:12.179Z,58.4
2023-04-16T01:58:29.682Z,54.1
2023-04-16T02:00:33.302Z,47.7
2023-04-16T02:03:40.445Z,50
2023-04-16T02:05:43.834Z,50.5
2023-04-16T02:18:08.621Z,56.6
2023-04-16T02:20:12.119Z,53.7
2023-04-16T02:22:15.770Z,55.8
2023-04-16T02:24:19.349Z,52.4
2023-04-16T02:28:29.634Z,56.2
2023-04-16T02:30:33.759Z,49.1
2023-04-16T02:34:40.458Z,58.1
2023-04-16T02:40:54.351Z,64.9
2023-04-16T02:42:57.948Z,63.7
2023-04-16T03:00:34.408Z,59.7
2023-04-16T03:02:36.949Z,71
2023-04-16T03:04:40.447Z,60.6
2023-04-16T03:06:44.054Z,49.4
2023-04-16T03:08:50.739Z,56
2023-04-16T03:10:54.342Z,81.7
2023-04-16T03:15:01.592Z,62.2
2023-04-16T03:17:05.153Z,65
2023-04-16T03:19:09.200Z,64.2
2023-04-16T03:21:12.369Z,59.2
2023-04-16T03:23:19.078Z,65.4
2023-04-16T03:25:22.698Z,54.4
2023-04-16T03:37:47.332Z,70.8
2023-04-16T03:41:54.578Z,71.5
2023-04-16T03:43:58.203Z,67.7
2023-04-16T03:46:01.897Z,65.2
2023-04-16T03:48:05.412Z,79.5
2023-04-16T03:50:08.988Z,70.1
2023-04-16T03:52:15.659Z,67.9
2023-04-16T03:54:20.768Z,66.1
2023-04-16T03:56:22.897Z,77.1
2023-04-16T03:58:52.909Z,68
2023-04-16T04:00:56.546Z,80.9
2023-04-16T04:03:00.306Z,76.4
2023-04-16T04:05:06.882Z,68.5
2023-04-16T04:07:10.444Z,68.8
2023-04-16T04:09:14.058Z,74.8
2023-04-16T04:11:17.661Z,70.8
2023-04-16T04:13:21.267Z,63.3
2023-04-16T04:15:24.847Z,70.2
2023-04-16T04:19:35.098Z,63.4
2023-04-16T04:21:38.693Z,78.7
2023-04-16T04:23:42.273Z,82.2
2023-04-16T04:25:45.996Z,52
2023-04-16T04:27:49.506Z,71.1
2023-04-16T04:29:53.096Z,62.9
2023-04-16T04:31:56.758Z,56.9
2023-04-16T04:42:17.774Z,58.9
2023-04-16T04:53:42.199Z,72
2023-04-16T04:55:45.817Z,68.7
2023-04-16T04:57:49.400Z,60.7
2023-04-16T04:59:53.022Z,76.9
2023-04-16T05:01:59.771Z,75.2
2023-04-16T05:04:03.340Z,64.1
2023-04-16T05:06:06.919Z,58.5
2023-04-16T05:08:10.508Z,76.6
2023-04-16T05:10:14.135Z,76.1
2023-04-16T05:12:17.737Z,68.9
2023-04-16T05:14:21.316Z,67.4
2023-04-16T05:16:28.034Z,68.8
2023-04-16T05:18:31.624Z,58.8
2023-04-16T05:22:38.816Z,63
2023-04-16T05:24:42.407Z,63.5
2023-04-16T05:26:46.071Z,73.3
2023-04-16T05:28:49.635Z,62.8
2023-04-16T05:30:56.343Z,62.6
2023-04-16T05:33:00.050Z,73
2023-04-16T05:37:07.151Z,71.1
2023-04-16T05:41:14.349Z,68
2023-04-16T05:45:26.734Z,78.5
2023-04-16T05:50:35.172Z,62.7
2023-04-16T05:54:42.353Z,63.6
2023-04-16T05:56:46.001Z,82.2
2023-04-16T05:58:52.625Z,70.6
2023-04-16T06:03:00.151Z,76.6
2023-04-16T06:05:03.500Z,70.5
2023-04-16T06:07:07.493Z,74
2023-04-16T06:09:10.956Z,71.8
2023-04-16T06:11:14.275Z,75.6
2023-04-16T06:13:20.960Z,71.9
2023-04-16T06:15:24.562Z,79.7
2023-04-16T06:19:31.764Z,67.8
2023-04-16T06:21:35.376Z,70.1
2023-04-16T06:23:38.954Z,71.5
2023-04-16T06:25:42.553Z,78.1
2023-04-16T06:27:49.237Z,81
2023-04-16T06:29:52.831Z,69.1
2023-04-16T06:31:56.498Z,80.8
2023-04-16T06:36:03.658Z,99.8
2023-04-16T06:38:07.252Z,74
2023-04-16T06:42:17.534Z,91.9
2023-04-16T06:44:21.193Z,87.1
2023-04-16T06:46:24.771Z,76.7
2023-04-16T06:47:28.145Z,76.6
2023-04-16T06:49:31.720Z,79.1
2023-04-16T06:53:38.944Z,71.8
2023-04-16T06:55:45.606Z,68.6
2023-04-16T06:57:49.227Z,86.9
2023-04-16T06:59:54.395Z,51.9
2023-04-16T07:10:15.453Z,83.6
2023-04-16T07:12:20.763Z,68.1
2023-04-16T07:14:22.684Z,86.8
2023-04-16T07:16:26.294Z,82.6
2023-04-16T07:18:29.908Z,63.5
2023-04-16T07:20:34.218Z,59.6
2023-04-16T07:24:43.758Z,100
2023-04-16T07:26:47.370Z,76.1
2023-04-16T07:28:50.936Z,82.2
2023-04-16T07:30:54.635Z,67.3
2023-04-16T07:32:58.168Z,77.5
2023-04-16T07:35:01.799Z,74.2
2023-04-16T07:37:05.359Z,83.5
2023-04-16T07:55:58.766Z,70.2
2023-04-16T07:58:02.389Z,69.6
2023-04-16T08:00:05.957Z,70.2
2023-04-16T08:02:09.653Z,81.9
2023-04-16T08:04:13.287Z,69.6
2023-04-16T08:06:19.761Z,72.9
2023-04-16T08:08:23.353Z,77.3
2023-04-16T08:10:26.955Z,86.1
2023-04-16T08:12:30.542Z,82
2023-04-16T08:14:34.117Z,79.8
2023-04-16T08:16:37.685Z,67.5
2023-04-16T08:18:41.291Z,67.8
2023-04-16T08:20:47.982Z,62.3
2023-04-16T08:24:55.132Z,70.2
2023-04-16T08:29:02.334Z,64.6
2023-04-16T08:31:06.011Z,67.7
2023-04-16T08:35:16.155Z,63.6
2023-04-16T08:37:19.733Z,68.9
2023-04-16T08:39:23.323Z,54.2
2023-04-16T08:40:27.534Z,56.6
2023-04-16T08:42:30.215Z,66.3
2023-04-16T08:44:33.786Z,60.6
2023-04-16T08:46:37.480Z,47.5
2023-04-16T08:48:44.056Z,54.2
2023-04-16T08:50:47.581Z,57.1
2023-04-16T08:52:51.154Z,54.3
2023-04-16T08:56:58.305Z,43.8
2023-04-16T09:01:05.471Z,44.2
2023-04-16T09:05:15.654Z,48.1
2023-04-16T09:07:19.254Z,44.4
2023-04-16T09:09:22.786Z,45.8
2023-04-16T09:11:26.363Z,39.6
2023-04-16T09:13:29.948Z,44.3
2023-04-16T09:15:35.164Z,41.3
2023-04-16T09:17:40.242Z,49.2
2023-04-16T09:19:43.698Z,54.4
2023-04-16T09:21:47.260Z,46.6
2023-04-16T09:25:54.367Z,41.9
2023-04-16T09:27:57.929Z,32.1
2023-04-16T09:37:18.505Z,47
2023-04-16T09:39:21.994Z,35.4
2023-04-16T09:41:25.524Z,36
2023-04-16T09:43:29.088Z,34.9
2023-04-16T09:45:35.699Z,39.2
2023-04-16T09:47:39.246Z,36.9
2023-04-16T09:49:42.734Z,46.8
2023-04-16T09:51:46.269Z,35.4
2023-04-16T09:55:53.327Z,37.7
2023-04-16T09:57:56.861Z,27.4
2023-04-16T10:02:14.280Z,29.3
2023-04-16T10:04:10.575Z,29.3
2023-04-16T10:06:13.962Z,25.8
2023-04-16T10:08:17.481Z,23.8
2023-04-16T10:10:21.005Z,25.5
2023-04-16T10:12:24.473Z,27.2
2023-04-16T10:14:31.014Z,31.5
2023-04-16T10:16:34.577Z,23.5
2023-04-16T10:18:38.037Z,24.2
2023-04-16T10:22:45.012Z,31.9
2023-04-16T10:24:48.527Z,22.9
2023-04-16T10:26:52.017Z,33.5
2023-04-16T10:28:58.574Z,30.3
2023-04-16T10:31:02.119Z,24.1
2023-04-16T10:33:05.636Z,24.7
2023-04-16T10:34:08.814Z,28.9
2023-04-16T10:36:12.369Z,30.8
2023-04-16T10:38:15.814Z,29.2
2023-04-16T10:40:19.347Z,29.3
2023-04-16T10:46:32.981Z,26.8
2023-04-16T10:48:48.825Z,27.8
2023-04-16T10:50:39.830Z,39.6
2023-04-16T10:52:43.320Z,24.8
2023-04-16T10:54:46.854Z,27
2023-04-16T10:58:56.915Z,29.5
2023-04-16T11:01:00.361Z,29
2023-04-16T11:03:03.941Z,22.2
2023-04-16T11:05:07.376Z,23.6
2023-04-16T11:11:21.029Z,26.3
2023-04-16T11:15:27.967Z,23.6
2023-04-16T11:17:31.523Z,24.4
2023-04-16T11:32:19.542Z,26.3
2023-04-16T11:34:22.988Z,25.1
2023-04-16T11:36:27.789Z,25
2023-04-16T11:46:47.010Z,18.6
2023-04-16T11:48:50.436Z,21.9
2023-04-16T11:50:53.887Z,26.7
2023-04-16T11:53:00.472Z,19.8
2023-04-16T11:57:07.379Z,24.1
2023-04-16T12:09:31.199Z,19.1
2023-04-16T12:11:34.672Z,20.2
2023-04-16T12:13:38.126Z,15.4
2023-04-16T12:15:42.647Z,24.1
2023-04-16T12:17:45.123Z,17.2
2023-04-16T12:19:48.478Z,22
2023-04-16T12:21:55.054Z,28.6
2023-04-16T12:23:58.505Z,25.3
2023-04-16T12:26:01.969Z,24.3
2023-04-16T12:31:12.203Z,23.4
2023-04-16T12:51:52.965Z,22.6
2023-04-16T12:56:01.459Z,30
2023-04-16T12:58:04.839Z,27.6
2023-04-16T13:00:08.302Z,21.8
2023-04-16T13:02:11.897Z,25.7
2023-04-16T13:04:18.421Z,22.5
2023-04-16T13:06:21.764Z,22.3
2023-04-16T13:08:25.204Z,23.7
2023-04-16T13:10:30.366Z,26.7
2023-04-16T13:12:32.093Z,17.6
2023-04-16T13:14:35.554Z,20.1
2023-04-16T13:23:55.812Z,20
2023-04-16T13:25:59.250Z,17.7
2023-04-16T13:30:06.177Z,25.7
2023-04-16T13:44:33.402Z,28
2023-04-16T13:46:39.985Z,23.4
2023-04-16T13:48:43.351Z,30
2023-04-16T13:50:46.858Z,19.8
2023-04-16T13:54:53.738Z,20.5
2023-04-16T14:01:07.292Z,24.9
2023-04-16T14:03:10.794Z,20.2
2023-04-16T14:07:17.689Z,21.3
2023-04-16T14:09:21.164Z,22.8
2023-04-16T14:13:28.104Z,18.9
2023-04-16T14:15:34.673Z,17
2023-04-16T14:17:38.184Z,17.7
2023-04-16T14:20:44.933Z,17.3
2023-04-16T14:22:48.424Z,17.1
2023-04-16T14:24:51.886Z,17.3
2023-04-16T14:26:55.403Z,23.8
2023-04-16T14:31:05.502Z,24.9
2023-04-16T14:37:15.959Z,18.6
2023-04-16T14:39:19.424Z,17.9
2023-04-16T14:41:22.882Z,15.3
2023-04-16T14:43:29.480Z,21.6
2023-04-16T14:45:33.010Z,16.8
2023-04-16T14:47:36.489Z,14.4
2023-04-16T14:49:39.947Z,15
2023-04-16T14:51:43.444Z,19.2
2023-04-16T14:53:46.970Z,18.7
2023-04-16T14:55:50.437Z,17.3
2023-04-16T14:57:57.052Z,16.6
2023-04-16T15:00:00.521Z,20.2
2023-04-16T15:02:04.052Z,18.7
2023-04-16T15:04:07.579Z,17.4
2023-04-16T15:08:14.475Z,19.5
2023-04-16T15:10:18.002Z,13.6
2023-04-16T15:12:24.550Z,25.5
2023-04-16T15:14:28.038Z,20.6
2023-04-16T15:16:31.557Z,21.6
2023-04-16T15:18:55.599Z,21.6
2023-04-16T15:20:59.137Z,31.4
2023-04-16T15:23:02.630Z,22.8
2023-04-16T15:25:09.192Z,22.6
2023-04-16T15:27:12.683Z,28.3
2023-04-16T15:31:19.675Z,23.4
2023-04-16T15:35:26.696Z,27.3
2023-04-16T15:37:30.198Z,22.4
2023-04-16T15:39:36.760Z,22.5
2023-04-16T15:41:53.633Z,23.5
2023-04-16T15:43:43.798Z,18.6
2023-04-16T15:45:47.291Z,21.4
2023-04-16T15:47:50.828Z,27
2023-04-16T15:49:54.271Z,26.5
2023-04-16T15:51:57.782Z,21.6
2023-04-16T15:54:04.404Z,20.6
2023-04-16T15:56:07.908Z,21.1
2023-04-16T16:02:18.595Z,20.3
2023-04-16T16:10:35.899Z,17.5
2023-04-16T16:12:39.074Z,22.1
2023-04-16T16:13:42.374Z,18.8
2023-04-16T16:15:45.920Z,16.5
2023-04-16T16:17:49.419Z,25.1
2023-04-16T16:19:52.915Z,16.1
2023-04-16T16:21:59.523Z,24.7
2023-04-16T16:24:03.062Z,24.1
2023-04-16T16:26:06.543Z,24.1
2023-04-16T16:28:10.074Z,26.2
2023-04-16T16:30:13.602Z,38.6
2023-04-16T16:32:17.159Z,21.1
2023-04-16T16:34:21.457Z,21.3
2023-04-16T16:36:27.281Z,25
2023-04-16T16:38:30.800Z,22.6
2023-04-16T16:46:44.941Z,21.7
2023-04-16T16:50:55.034Z,20
2023-04-16T17:09:29.865Z,22.5
2023-04-16T17:10:33.800Z,20.2
2023-04-16T17:12:36.704Z,22.9
2023-04-16T17:14:40.275Z,20.4
2023-04-16T17:16:43.838Z,27.8
2023-04-16T17:18:50.444Z,22.4
2023-04-16T17:20:53.969Z,23.2
2023-04-16T17:22:57.472Z,18.3
2023-04-16T17:25:01.002Z,25.5
2023-04-16T17:27:04.597Z,19.7
2023-04-16T17:29:08.109Z,25.5
2023-04-16T17:31:11.661Z,24.8
2023-04-16T17:33:18.315Z,23.6
2023-04-16T17:35:21.782Z,20.6
2023-04-16T17:37:25.346Z,19.1
2023-04-16T17:39:28.901Z,24.9
2023-04-16T17:41:32.895Z,23
2023-04-16T17:43:36.440Z,23.6
2023-04-16T17:45:40.631Z,25.9
2023-04-16T17:47:47.140Z,30.8
2023-04-16T17:49:50.642Z,18.8
2023-04-16T17:53:57.754Z,24.6
2023-04-16T17:56:01.316Z,23.1
2023-04-16T17:58:04.869Z,22.9
2023-04-16T18:02:15.149Z,23.7
2023-04-16T18:04:19.189Z,27.1
2023-04-16T18:06:22.146Z,31.1
2023-04-16T18:07:25.500Z,25.6
2023-04-16T18:11:32.585Z,21.7
2023-04-16T18:13:36.170Z,36.3
2023-04-16T18:15:43.186Z,31.2
2023-04-16T18:17:46.365Z,24.5
2023-04-16T18:19:49.870Z,28
2023-04-16T18:21:53.430Z,21.6
2023-04-16T18:26:00.544Z,30.3
2023-04-16T18:30:19.888Z,30.2
2023-04-16T18:34:17.840Z,21.6
2023-04-16T18:46:42.315Z,25.1
2023-04-16T18:48:45.801Z,23.6
2023-04-16T18:50:49.377Z,31.4
2023-04-16T18:59:08.330Z,26.8
2023-04-16T19:01:11.854Z,30.7
2023-04-16T19:03:15.381Z,41.8
2023-04-16T19:05:33.804Z,27.8
2023-04-16T19:07:37.101Z,39.8
2023-04-16T19:09:40.663Z,29.3
2023-04-16T19:11:47.276Z,29.9
2023-04-16T19:13:50.815Z,33.2
2023-04-16T19:15:54.410Z,28.3
2023-04-16T19:17:58.022Z,24.8
2023-04-16T19:20:01.611Z,30.9
2023-04-16T19:22:05.026Z,33.1
2023-04-16T19:24:08.607Z,27.7
2023-04-16T19:26:15.218Z,30.7
2023-04-16T19:28:18.789Z,33.8
2023-04-16T19:32:25.916Z,28.1
2023-04-16T19:40:43.207Z,27.3
2023-04-16T19:42:46.775Z,28.1
2023-04-16T19:46:53.878Z,27.4
2023-04-16T19:48:57.467Z,24.7
2023-04-16T19:51:01.002Z,30.4
2023-04-16T19:53:04.563Z,31.4
2023-04-16T19:57:14.739Z,30.2
2023-04-16T19:59:18.286Z,29.4
2023-04-16T20:00:21.623Z,25.4
2023-04-16T20:29:17.664Z,31.1
2023-04-16T20:31:21.220Z,30.6
2023-04-16T20:33:24.774Z,31.6
2023-04-16T20:39:38.549Z,32.3
2023-04-16T20:41:42.117Z,34.9
2023-04-16T20:43:45.666Z,27
2023-04-16T20:45:49.287Z,27.2
2023-04-16T20:47:52.841Z,30
2023-04-16T20:49:56.364Z,31.6
2023-04-16T20:52:02.991Z,23.6
2023-04-16T20:54:06.551Z,35.2
2023-04-16T20:57:13.448Z,29.7
2023-04-16T20:59:17.625Z,25.2
2023-04-16T21:01:20.638Z,30.9
2023-04-16T21:03:24.385Z,36.4
2023-04-16T21:07:34.372Z,35
2023-04-16T21:09:37.914Z,39.5
2023-04-16T21:11:41.477Z,27.1
2023-04-16T21:15:48.717Z,33.4
2023-04-16T21:17:52.279Z,44.6
2023-04-16T21:19:58.881Z,29.4
2023-04-16T21:24:06.030Z,35.8
2023-04-16T21:26:09.576Z,35.9
2023-04-16T21:28:13.148Z,32.8
2023-04-16T21:42:41.300Z,34.2
2023-04-16T21:44:44.840Z,32.9
2023-04-16T21:46:48.481Z,34.8
2023-04-16T21:48:55.113Z,38.9
2023-04-16T21:53:02.266Z,32.8
2023-04-16T21:54:05.621Z,32.5
2023-04-16T21:56:09.183Z,46.7
2023-04-16T21:58:12.780Z,42
2023-04-16T22:00:16.394Z,39.8
2023-04-16T22:02:23.159Z,42.1
2023-04-16T22:04:26.607Z,36
2023-04-16T22:06:30.208Z,36.2
2023-04-16T22:08:33.803Z,36
2023-04-16T22:10:37.380Z,35.5
2023-04-16T22:12:40.982Z,37.6
2023-04-16T22:14:55.814Z,42.1
2023-04-16T22:29:12.905Z,37.2
2023-04-16T22:47:51.203Z,43.3
2023-04-16T22:49:54.735Z,42.9
2023-04-16T22:54:22.564Z,44.1
2023-04-16T22:56:26.150Z,51.7
2023-04-16T23:02:40.091Z,45.2
2023-04-16T23:04:43.587Z,46
2023-04-16T23:06:47.219Z,40.9
2023-04-16T23:08:50.786Z,39.1
2023-04-16T23:10:54.400Z,40.8
2023-04-16T23:13:01.057Z,42.7
2023-04-16T23:19:12.099Z,48.4
2023-04-16T23:21:15.429Z,48.6
2023-04-16T23:31:36.689Z,41.3
2023-04-16T23:33:40.086Z,42.3
2023-04-16T23:35:43.669Z,35.6
2023-04-16T23:39:50.879Z,33.6
2023-04-16T23:41:57.559Z,43.5
2023-04-16T23:44:01.144Z,34.4
2023-04-16T23:46:04.879Z,38
2023-04-16T23:53:18.881Z,30.7
